createdAt,value
2018-06-05T00:02:02.136Z,83.60
2018-06-05T00:04:37.099Z,84.90
2018-06-05T00:07:12.094Z,86.90
2018-06-05T00:09:47.164Z,86.50
2018-06-05T00:12:22.369Z,87.20
2018-06-05T00:14:57.371Z,85.80
2018-06-05T00:17:32.503Z,86.70
2018-06-05T00:20:07.548Z,87.90
2018-06-05T00:22:42.696Z,87.20
2018-06-05T00:25:18.509Z,87.30
2018-06-05T00:27:53.698Z,87.40
2018-06-05T00:30:28.893Z,87.10
2018-06-05T00:33:03.976Z,86.10
2018-06-05T00:35:39.094Z,86.40
2018-06-05T00:38:14.230Z,87.90
2018-06-05T00:40:49.324Z,88.00
2018-06-05T00:43:24.525Z,88.40
2018-06-05T00:45:59.555Z,87.40
2018-06-05T00:48:34.539Z,87.40
2018-06-05T00:51:20.939Z,88.80
2018-06-05T00:53:56.332Z,89.00
2018-06-05T00:56:31.507Z,87.70
2018-06-05T00:59:06.533Z,87.60
2018-06-05T01:01:41.654Z,87.50
2018-06-05T01:04:16.811Z,85.30
2018-06-05T01:06:52.011Z,86.00
2018-06-05T01:09:27.160Z,87.40
2018-06-05T01:12:02.138Z,87.70
2018-06-05T01:14:37.164Z,86.80
2018-06-05T01:17:12.239Z,86.30
2018-06-05T01:19:47.223Z,86.90
2018-06-05T01:22:22.231Z,86.50
2018-06-05T01:24:57.423Z,86.80
2018-06-05T01:27:32.430Z,89.00
2018-06-05T01:30:07.491Z,87.10
2018-06-05T01:32:42.509Z,90.50
2018-06-05T01:35:17.493Z,90.10
2018-06-05T01:37:52.513Z,89.20
2018-06-05T01:40:27.539Z,88.10
2018-06-05T01:43:02.792Z,85.90
2018-06-05T01:45:37.855Z,86.60
2018-06-05T01:48:12.981Z,87.70
2018-06-05T01:50:47.967Z,86.30
2018-06-05T01:53:23.067Z,85.90
2018-06-05T01:55:58.213Z,87.10
2018-06-05T01:58:33.245Z,86.90
2018-06-05T02:01:08.357Z,85.80
2018-06-05T02:03:43.547Z,85.00
2018-06-05T02:06:18.680Z,84.00
2018-06-05T02:08:53.664Z,84.40
2018-06-05T02:11:28.715Z,83.20
2018-06-05T02:14:03.834Z,80.70
2018-06-05T02:16:38.880Z,83.00
2018-06-05T02:19:13.956Z,83.00
2018-06-05T02:21:49.037Z,82.20
2018-06-05T02:24:24.581Z,81.80
2018-06-05T02:26:59.580Z,82.00
2018-06-05T02:29:34.702Z,81.00
2018-06-05T02:32:09.734Z,81.50
2018-06-05T02:34:44.796Z,84.00
2018-06-05T02:37:19.933Z,82.80
2018-06-05T02:39:54.991Z,81.90
2018-06-05T02:42:30.058Z,80.60
2018-06-05T02:45:05.215Z,82.30
2018-06-05T02:47:40.227Z,81.90
2018-06-05T02:50:15.223Z,82.00
2018-06-05T02:52:50.391Z,81.40
2018-06-05T02:55:25.609Z,80.20
2018-06-05T02:58:00.594Z,81.90
2018-06-05T03:00:35.703Z,80.90
2018-06-05T03:03:10.864Z,82.50
2018-06-05T03:05:45.848Z,80.50
2018-06-05T03:08:21.016Z,83.60
2018-06-05T03:10:56.184Z,81.40
2018-06-05T03:13:31.205Z,81.70
2018-06-05T03:16:06.428Z,81.30
2018-06-05T03:18:41.590Z,83.00
2018-06-05T03:21:16.670Z,83.90
2018-06-05T03:23:51.708Z,83.80
2018-06-05T03:26:26.624Z,82.90
2018-06-05T03:29:02.684Z,82.00
2018-06-05T03:31:37.828Z,82.60
2018-06-05T03:34:13.019Z,84.50
2018-06-05T03:36:48.095Z,83.60
2018-06-05T03:39:23.137Z,82.90
2018-06-05T03:41:58.141Z,83.60
2018-06-05T03:44:33.303Z,84.00
2018-06-05T03:47:08.285Z,82.40
2018-06-05T03:49:43.288Z,83.00
2018-06-05T03:52:18.400Z,81.60
2018-06-05T03:54:53.598Z,85.30
2018-06-05T03:57:28.644Z,84.40
2018-06-05T04:00:03.823Z,82.70
2018-06-05T04:02:38.820Z,82.80
2018-06-05T04:05:13.842Z,83.70
2018-06-05T04:07:48.928Z,83.90
2018-06-05T04:10:24.100Z,84.20
2018-06-05T04:12:59.252Z,83.70
2018-06-05T04:15:34.279Z,83.40
2018-06-05T04:18:09.304Z,84.00
2018-06-05T04:20:44.391Z,83.70
2018-06-05T04:23:19.345Z,84.20
2018-06-05T04:25:54.512Z,84.90
2018-06-05T04:28:29.502Z,85.30
2018-06-05T04:31:04.528Z,86.30
2018-06-05T04:33:39.610Z,86.20
2018-06-05T04:36:14.679Z,85.50
2018-06-05T04:38:49.723Z,84.10
2018-06-05T04:41:24.688Z,84.10
2018-06-05T04:43:59.704Z,84.20
2018-06-05T04:46:34.748Z,86.30
2018-06-05T04:49:09.984Z,83.50
2018-06-05T04:51:45.146Z,83.40
2018-06-05T04:54:20.373Z,82.90
2018-06-05T04:56:55.415Z,84.50
2018-06-05T04:59:30.407Z,84.50
2018-06-05T05:02:05.533Z,84.00
2018-06-05T05:04:40.687Z,82.90
2018-06-05T05:07:15.868Z,85.90
2018-06-05T05:09:50.845Z,85.70
2018-06-05T05:12:25.933Z,85.10
2018-06-05T05:15:01.230Z,84.20
2018-06-05T05:17:36.459Z,83.40
2018-06-05T05:20:11.492Z,82.90
2018-06-05T05:22:46.591Z,83.50
2018-06-05T05:25:21.653Z,82.80
2018-06-05T05:27:56.680Z,82.70
2018-06-05T05:30:31.874Z,82.50
2018-06-05T05:33:06.949Z,81.60
2018-06-05T05:35:41.964Z,82.30
2018-06-05T05:38:16.983Z,81.40
2018-06-05T05:40:52.002Z,81.00
2018-06-05T05:43:27.207Z,80.70
2018-06-05T05:46:02.297Z,80.30
2018-06-05T05:48:37.503Z,79.70
2018-06-05T05:51:12.704Z,79.20
2018-06-05T05:53:47.854Z,78.20
2018-06-05T05:56:22.973Z,80.20
2018-06-05T05:58:58.155Z,77.30
2018-06-05T06:01:33.388Z,78.80
2018-06-05T06:04:08.385Z,80.40
2018-06-05T06:06:43.471Z,81.90
2018-06-05T06:09:18.627Z,82.50
2018-06-05T06:11:53.706Z,79.30
2018-06-05T06:14:28.729Z,80.00
2018-06-05T06:17:03.823Z,81.10
2018-06-05T06:19:38.842Z,82.30
2018-06-05T06:22:13.857Z,81.80
2018-06-05T06:24:49.125Z,82.30
2018-06-05T06:27:24.230Z,81.00
2018-06-05T06:29:59.264Z,80.50
2018-06-05T06:32:34.374Z,81.90
2018-06-05T06:35:09.422Z,80.40
2018-06-05T06:37:44.612Z,81.50
2018-06-05T06:40:19.748Z,81.90
2018-06-05T06:42:54.892Z,81.40
2018-06-05T06:48:05.264Z,79.80
2018-06-05T06:50:40.296Z,80.60
2018-06-05T06:53:15.390Z,81.10
2018-06-05T06:55:50.324Z,81.90
2018-06-05T06:58:25.491Z,82.70
2018-06-05T07:01:00.515Z,83.00
2018-06-05T07:03:35.600Z,85.50
2018-06-05T07:06:10.646Z,86.70
2018-06-05T07:08:46.991Z,88.20
2018-06-05T07:11:27.146Z,88.00
2018-06-05T07:14:02.232Z,86.60
2018-06-05T07:16:37.226Z,86.90
2018-06-05T07:19:12.346Z,86.30
2018-06-05T07:21:48.575Z,83.70
2018-06-05T07:24:23.719Z,83.80
2018-06-05T07:26:58.764Z,82.80
2018-06-05T07:29:33.852Z,82.10
2018-06-05T07:32:08.858Z,84.10
2018-06-05T07:34:43.996Z,83.90
2018-06-05T07:37:19.060Z,84.50
2018-06-05T07:39:54.146Z,82.60
2018-06-05T07:42:29.345Z,84.40
2018-06-05T07:45:04.496Z,84.80
2018-06-05T07:47:39.580Z,82.90
2018-06-05T07:50:14.598Z,82.70
2018-06-05T07:52:49.636Z,82.60
2018-06-05T07:55:25.128Z,81.10
2018-06-05T07:58:00.111Z,81.30
2018-06-05T08:00:35.097Z,82.70
2018-06-05T08:03:10.080Z,83.10
2018-06-05T08:05:45.124Z,84.10
2018-06-05T08:08:20.156Z,84.30
2018-06-05T08:10:55.196Z,83.50
2018-06-05T08:13:30.319Z,84.20
2018-06-05T08:16:06.858Z,84.70
2018-06-05T08:18:41.932Z,85.20
2018-06-05T08:21:16.880Z,84.00
2018-06-05T08:23:51.979Z,82.40
2018-06-05T08:27:03.223Z,83.80
2018-06-05T08:29:38.478Z,84.50
2018-06-05T08:32:16.430Z,84.00
2018-06-05T08:34:51.536Z,84.60
2018-06-05T08:37:26.698Z,85.70
2018-06-05T08:40:01.791Z,86.20
2018-06-05T08:42:36.977Z,86.60
2018-06-05T08:45:11.980Z,85.20
2018-06-05T08:47:47.121Z,85.40
2018-06-05T08:50:22.223Z,85.70
2018-06-05T08:52:57.291Z,85.70
2018-06-05T08:55:32.310Z,86.40
2018-06-05T08:58:07.304Z,87.10
2018-06-05T09:00:42.481Z,86.20
2018-06-05T09:03:17.579Z,86.30
2018-06-05T09:05:52.535Z,86.00
2018-06-05T09:08:27.592Z,86.70
2018-06-05T09:11:02.736Z,86.20
2018-06-05T09:13:37.807Z,86.00
2018-06-05T09:16:12.800Z,86.20
2018-06-05T09:18:47.776Z,86.80
2018-06-05T09:21:22.839Z,86.40
2018-06-05T09:23:57.847Z,85.70
2018-06-05T09:26:33.023Z,83.30
2018-06-05T09:29:08.190Z,83.40
2018-06-05T09:31:43.313Z,84.90
2018-06-05T09:34:18.391Z,85.20
2018-06-05T09:36:53.483Z,83.80
2018-06-05T09:39:28.442Z,82.40
2018-06-05T09:42:03.413Z,79.80
2018-06-05T09:44:38.569Z,80.20
2018-06-05T09:47:13.590Z,81.10
2018-06-05T09:49:48.830Z,82.60
2018-06-05T09:52:23.985Z,83.50
2018-06-05T09:57:34.217Z,80.70
2018-06-05T10:00:09.477Z,81.90
2018-06-05T10:02:44.524Z,83.00
2018-06-05T10:05:19.560Z,84.50
2018-06-05T10:07:54.604Z,84.20
2018-06-05T10:10:29.525Z,80.90
2018-06-05T10:13:04.597Z,80.30
2018-06-05T10:15:39.804Z,80.10
2018-06-05T10:18:15.024Z,81.00
2018-06-05T10:20:49.984Z,82.40
2018-06-05T10:23:25.058Z,82.00
2018-06-05T10:26:00.152Z,81.40
2018-06-05T10:31:10.127Z,79.40
2018-06-05T10:33:45.207Z,82.10
2018-06-05T10:36:20.333Z,82.00
2018-06-05T10:38:55.571Z,81.50
2018-06-05T10:41:30.742Z,79.90
2018-06-05T10:44:05.921Z,78.60
2018-06-05T10:46:40.975Z,77.20
2018-06-05T10:49:15.949Z,75.80
2018-06-05T10:51:50.963Z,76.30
2018-06-05T10:54:26.248Z,77.60
2018-06-05T10:57:01.312Z,75.70
2018-06-05T10:59:36.504Z,77.30
2018-06-05T11:02:11.572Z,77.20
2018-06-05T11:04:46.777Z,78.80
2018-06-05T11:07:22.011Z,78.70
2018-06-05T11:09:57.193Z,76.30
2018-06-05T11:12:32.316Z,74.40
2018-06-05T11:15:07.404Z,73.70
2018-06-05T11:17:42.549Z,73.70
2018-06-05T11:20:17.783Z,75.10
2018-06-05T11:22:52.839Z,76.80
2018-06-05T11:25:27.836Z,78.80
2018-06-05T11:28:03.002Z,77.00
2018-06-05T11:30:38.061Z,75.80
2018-06-05T11:33:13.080Z,75.60
2018-06-05T11:35:48.261Z,74.70
2018-06-05T11:38:23.324Z,75.20
2018-06-05T11:40:58.480Z,74.20
2018-06-05T11:43:33.587Z,75.10
2018-06-05T11:46:08.636Z,75.80
2018-06-05T11:48:43.767Z,72.30
2018-06-05T11:51:18.776Z,74.10
2018-06-05T11:53:53.993Z,74.80
2018-06-05T11:56:29.087Z,74.20
2018-06-05T11:59:04.364Z,74.90
2018-06-05T12:01:39.423Z,76.00
2018-06-05T12:04:14.454Z,75.50
2018-06-05T12:06:49.627Z,77.20
2018-06-05T12:09:24.764Z,78.40
2018-06-05T12:11:59.852Z,78.10
2018-06-05T12:14:34.804Z,76.00
2018-06-05T12:17:09.935Z,77.40
2018-06-05T12:19:46.584Z,73.90
2018-06-05T12:22:21.696Z,74.40
2018-06-05T12:24:56.827Z,73.30
2018-06-05T12:27:31.928Z,73.80
2018-06-05T12:30:07.074Z,74.20
2018-06-05T12:32:42.209Z,73.50
2018-06-05T12:35:17.266Z,74.50
2018-06-05T12:37:52.340Z,74.90
2018-06-05T12:40:27.504Z,76.50
2018-06-05T12:43:02.505Z,75.40
2018-06-05T12:45:37.516Z,74.80
2018-06-05T12:48:13.627Z,75.70
2018-06-05T12:50:48.682Z,76.70
2018-06-05T12:53:23.949Z,75.80
2018-06-05T12:55:59.115Z,75.30
2018-06-05T12:58:34.302Z,76.10
2018-06-05T13:01:09.303Z,74.60
2018-06-05T13:03:44.360Z,75.10
2018-06-05T13:06:19.405Z,76.00
2018-06-05T13:08:54.554Z,76.90
2018-06-05T13:11:29.554Z,76.20
2018-06-05T13:14:04.730Z,76.30
2018-06-05T13:16:39.708Z,75.30
2018-06-05T13:19:14.821Z,76.60
2018-06-05T13:21:49.884Z,75.60
2018-06-05T13:24:24.936Z,76.50
2018-06-05T13:27:06.909Z,73.70
2018-06-05T13:29:42.151Z,72.00
2018-06-05T13:32:17.143Z,71.00
2018-06-05T13:34:52.286Z,72.10
2018-06-05T13:37:27.331Z,71.10
2018-06-05T13:40:02.460Z,71.10
2018-06-05T13:42:37.500Z,72.40
2018-06-05T13:45:12.516Z,70.80
2018-06-05T13:47:47.528Z,71.10
2018-06-05T13:50:22.716Z,70.40
2018-06-05T13:52:57.733Z,68.40
2018-06-05T13:55:33.153Z,71.00
2018-06-05T13:58:08.262Z,71.10
2018-06-05T14:00:43.432Z,71.90
2018-06-05T14:03:18.380Z,70.60
2018-06-05T14:05:53.455Z,70.60
2018-06-05T14:08:28.636Z,72.60
2018-06-05T14:11:03.636Z,72.70
2018-06-05T14:13:38.669Z,72.20
2018-06-05T14:16:13.720Z,70.20
2018-06-05T14:18:48.803Z,68.90
2018-06-05T14:21:23.772Z,70.90
2018-06-05T14:23:58.903Z,70.50
2018-06-05T14:29:08.737Z,69.80
2018-06-05T14:31:43.859Z,70.30
2018-06-05T14:34:18.886Z,71.60
2018-06-05T14:36:53.956Z,72.30
2018-06-05T14:39:29.105Z,71.70
2018-06-05T14:42:04.248Z,75.00
2018-06-05T14:44:39.338Z,72.80
2018-06-05T14:47:14.334Z,70.40
2018-06-05T14:49:49.573Z,69.00
2018-06-05T14:52:24.992Z,69.60
2018-06-05T14:55:00.099Z,71.30
2018-06-05T14:57:35.278Z,70.60
2018-06-05T15:00:10.349Z,71.20
2018-06-05T15:02:45.494Z,72.10
2018-06-05T15:05:20.462Z,68.40
2018-06-05T15:07:55.628Z,69.20
2018-06-05T15:10:30.631Z,68.60
2018-06-05T15:13:06.530Z,69.80
2018-06-05T15:15:41.603Z,69.10
2018-06-05T15:18:16.589Z,71.20
2018-06-05T15:20:51.562Z,69.40
2018-06-05T15:23:26.693Z,69.80
2018-06-05T15:26:01.676Z,70.50
2018-06-05T15:28:37.716Z,70.30
2018-06-05T15:31:12.883Z,69.80
2018-06-05T15:33:47.921Z,67.90
2018-06-05T15:36:22.989Z,69.30
2018-06-05T15:38:58.232Z,68.60
2018-06-05T15:41:33.824Z,69.50
2018-06-05T15:44:08.968Z,69.70
2018-06-05T15:46:44.073Z,68.40
2018-06-05T15:49:19.191Z,68.10
2018-06-05T15:51:54.240Z,65.70
2018-06-05T15:54:29.324Z,67.70
2018-06-05T15:57:04.338Z,67.70
2018-06-05T15:59:39.464Z,66.90
2018-06-05T16:02:14.484Z,67.00
2018-06-05T16:04:49.529Z,67.30
2018-06-05T16:07:24.581Z,67.60
2018-06-05T16:09:59.704Z,67.10
2018-06-05T16:12:34.749Z,66.70
2018-06-05T16:15:09.880Z,67.10
2018-06-05T16:17:44.959Z,67.30
2018-06-05T16:20:20.046Z,68.10
2018-06-05T16:22:55.182Z,67.60
2018-06-05T16:25:30.181Z,69.30
2018-06-05T16:28:05.637Z,67.50
2018-06-05T16:30:40.608Z,67.10
2018-06-05T16:33:16.609Z,67.70
2018-06-05T16:35:51.577Z,68.30
2018-06-05T16:38:26.734Z,68.10
2018-06-05T16:41:01.937Z,68.40
2018-06-05T16:43:36.951Z,67.40
2018-06-05T16:46:11.949Z,68.40
2018-06-05T16:48:46.998Z,68.10
2018-06-05T16:51:22.073Z,68.00
2018-06-05T16:53:57.131Z,67.50
2018-06-05T16:56:32.261Z,68.40
2018-06-05T16:59:07.380Z,69.00
2018-06-05T17:01:42.493Z,68.00
2018-06-05T17:04:17.728Z,67.40
2018-06-05T17:06:52.727Z,68.20
2018-06-05T17:09:27.794Z,67.60
2018-06-05T17:12:02.892Z,67.60
2018-06-05T17:14:38.036Z,67.70
2018-06-05T17:17:13.057Z,67.30
2018-06-05T17:19:48.156Z,67.10
2018-06-05T17:22:23.233Z,65.90
2018-06-05T17:24:58.319Z,67.80
2018-06-05T17:27:33.557Z,65.80
2018-06-05T17:30:08.441Z,66.00
2018-06-05T17:32:43.489Z,66.40
2018-06-05T17:35:18.424Z,65.60
2018-06-05T17:37:53.740Z,66.50
2018-06-05T17:40:28.915Z,66.20
2018-06-05T17:43:03.971Z,65.40
2018-06-05T17:45:39.176Z,66.00
2018-06-05T17:48:14.196Z,65.60
2018-06-05T17:50:49.246Z,65.00
2018-06-05T17:53:24.273Z,65.60
2018-06-05T17:55:59.335Z,65.60
2018-06-05T17:58:34.512Z,65.90
2018-06-05T18:01:09.536Z,66.10
2018-06-05T18:03:44.623Z,66.40
2018-06-05T18:06:19.769Z,65.60
2018-06-05T18:08:54.978Z,67.10
2018-06-05T18:11:30.144Z,66.80
2018-06-05T18:14:05.291Z,67.50
2018-06-05T18:16:40.383Z,67.10
2018-06-05T18:19:15.587Z,67.60
2018-06-05T18:21:50.607Z,67.60
2018-06-05T18:24:25.652Z,67.20
2018-06-05T18:27:00.666Z,67.50
2018-06-05T18:29:35.785Z,67.00
2018-06-05T18:32:10.862Z,67.20
2018-06-05T18:34:45.929Z,67.50
2018-06-05T18:37:21.008Z,67.50
2018-06-05T18:39:56.062Z,68.30
2018-06-05T18:42:31.023Z,69.20
2018-06-05T18:45:06.159Z,67.40
2018-06-05T18:47:41.350Z,68.00
2018-06-05T18:50:16.389Z,68.80
2018-06-05T18:52:51.495Z,68.70
2018-06-05T18:55:26.492Z,69.00
2018-06-05T18:58:01.673Z,69.50
2018-06-05T19:00:37.582Z,69.70
2018-06-05T19:03:12.547Z,72.70
2018-06-05T19:05:47.665Z,72.70
2018-06-05T19:08:22.732Z,73.40
2018-06-05T19:10:57.720Z,73.80
2018-06-05T19:13:32.885Z,73.00
2018-06-05T19:16:08.035Z,75.00
2018-06-05T19:18:43.092Z,74.90
2018-06-05T19:21:18.121Z,75.70
2018-06-05T19:23:53.340Z,75.90
2018-06-05T19:26:28.463Z,76.90
2018-06-05T19:29:03.670Z,77.90
2018-06-05T19:31:43.227Z,78.60
2018-06-05T19:34:20.024Z,78.70
2018-06-05T19:39:32.176Z,79.90
2018-06-05T19:42:08.411Z,80.00
2018-06-05T19:44:43.555Z,80.80
2018-06-05T19:47:18.630Z,81.10
2018-06-05T19:49:53.752Z,81.50
2018-06-05T19:52:29.100Z,81.70
2018-06-05T19:55:04.311Z,82.10
2018-06-05T19:57:39.352Z,81.20
2018-06-05T20:00:14.581Z,81.90
2018-06-05T20:02:49.628Z,82.90
2018-06-05T20:05:24.682Z,82.80
2018-06-05T20:07:59.818Z,83.50
2018-06-05T20:10:34.827Z,83.40
2018-06-05T20:13:09.922Z,84.20
2018-06-05T20:15:45.041Z,84.70
2018-06-05T20:18:20.207Z,85.50
2018-06-05T20:20:55.165Z,85.70
2018-06-05T20:23:30.308Z,85.20
2018-06-05T20:26:05.481Z,86.90
2018-06-05T20:28:40.602Z,86.20
2018-06-05T20:31:15.707Z,86.00
2018-06-05T20:33:50.773Z,86.30
2018-06-05T20:36:25.910Z,86.20
2018-06-05T20:39:00.928Z,85.70
2018-06-05T20:41:36.040Z,86.80
2018-06-05T20:46:45.816Z,87.20
2018-06-05T20:49:21.162Z,86.60
2018-06-05T20:51:56.368Z,86.20
2018-06-05T20:54:31.326Z,86.40
2018-06-05T20:57:06.298Z,86.10
2018-06-05T20:59:41.540Z,86.80
2018-06-05T21:02:16.583Z,87.10
2018-06-05T21:04:51.653Z,87.00
2018-06-05T21:07:26.743Z,87.40
2018-06-05T21:10:01.768Z,88.60
2018-06-05T21:12:36.774Z,89.70
2018-06-05T21:15:11.827Z,88.30
2018-06-05T21:17:46.859Z,89.60
2018-06-05T21:20:22.040Z,89.80
2018-06-05T21:22:57.016Z,89.60
2018-06-05T21:25:32.220Z,89.30
2018-06-05T21:28:07.357Z,89.50
2018-06-05T21:30:42.463Z,89.70
2018-06-05T21:33:17.575Z,89.70
2018-06-05T21:35:52.577Z,89.60
2018-06-05T21:38:27.684Z,89.20
2018-06-05T21:41:03.054Z,89.00
2018-06-05T21:43:38.048Z,90.00
2018-06-05T21:46:13.095Z,90.80
2018-06-05T21:48:48.128Z,91.00
2018-06-05T21:51:23.135Z,91.00
2018-06-05T21:53:58.112Z,90.60
2018-06-05T21:56:33.352Z,90.70
2018-06-05T21:59:08.396Z,90.70
2018-06-05T22:01:43.592Z,91.10
2018-06-05T22:04:18.642Z,90.80
2018-06-05T22:06:53.708Z,91.30
2018-06-05T22:09:28.753Z,91.40
2018-06-05T22:12:03.853Z,91.20
2018-06-05T22:14:39.024Z,91.80
2018-06-05T22:17:14.272Z,91.20
2018-06-05T22:19:49.440Z,91.10
2018-06-05T22:22:24.478Z,91.50
2018-06-05T22:24:59.550Z,91.40
2018-06-05T22:27:34.767Z,91.40
2018-06-05T22:30:10.068Z,91.30
2018-06-05T22:32:45.070Z,91.60
2018-06-05T22:35:20.152Z,91.40
2018-06-05T22:37:55.147Z,91.60
2018-06-05T22:40:30.278Z,91.00
2018-06-05T22:43:05.393Z,91.70
2018-06-05T22:45:40.452Z,91.90
2018-06-05T22:48:15.442Z,91.70
2018-06-05T22:50:50.507Z,91.60
2018-06-05T22:53:25.680Z,92.00
2018-06-05T22:56:00.726Z,92.20
2018-06-05T22:58:35.773Z,92.50
2018-06-05T23:01:10.949Z,92.90
2018-06-05T23:03:46.214Z,92.80
2018-06-05T23:06:21.193Z,92.50
2018-06-05T23:08:56.378Z,92.50
2018-06-05T23:11:31.399Z,92.40
2018-06-05T23:14:06.561Z,92.10
2018-06-05T23:16:41.581Z,91.50
2018-06-05T23:19:16.661Z,91.70
2018-06-05T23:21:51.719Z,92.20
2018-06-05T23:24:26.878Z,92.40
2018-06-05T23:27:02.060Z,92.40
2018-06-05T23:29:37.198Z,92.10
2018-06-05T23:32:12.391Z,91.90
2018-06-05T23:34:47.466Z,92.20
2018-06-05T23:37:22.608Z,92.70
2018-06-05T23:39:57.764Z,92.50
2018-06-05T23:42:32.955Z,92.80
2018-06-05T23:45:08.062Z,93.30
2018-06-05T23:47:43.057Z,93.20
2018-06-05T23:50:18.120Z,92.60
2018-06-05T23:52:53.229Z,92.70
2018-06-05T23:55:28.377Z,92.20
2018-06-05T23:58:03.613Z,92.20
